Flight Track Log - Related Links

Times and Time Zones

All times are in EDT time to prevent confusion due to time zone crossing. See the SKW6228 flight status page for this flight to view local times or setup timezone preferences in your user account.

Time Position Orientation Groundspeed Altitude Reporting Facility
EDT Latitude Longitude Course Direction KTS MPH feet Rate Location/Type
Wed 11:16:28 AM 39.8833 -104.8333 277° West 244 281 9,000  Level Denver TRACON
Wed 11:17:09 AM 39.9161 -104.8742 316° Northwest 241 277 10,700 2,680 Climbing Denver Center
Wed 11:18:00 AM 39.9050 -105.3033 288° West  Level FlightAware Approximate
Wed 11:18:11 AM 39.9550 -104.9514 303° West 254 292 13,600  Level Denver Center
Wed 11:19:00 AM 39.9268 -105.4607 277° West  Level FlightAware Approximate
Wed 11:19:13 AM 39.9994 -105.0350 305° West 260 299 15,700  Level Denver Center
Wed 11:20:00 AM 39.9333 -105.6208 270° West  Level FlightAware Approximate
Wed 11:20:15 AM 40.0400 -105.1208 302° West 275 316 17,400  Level Denver Center
Wed 11:21:00 AM 39.9380 -105.7677 277° West  Level FlightAware Approximate
Wed 11:21:17 AM 40.0861 -105.2269 300° West 319 367 18,600  Level Denver Center
Wed 11:22:19 AM 40.1281 -105.3397 296° West 344 396 20,200 1,597 Climbing Denver Center
Wed 11:23:21 AM 40.1686 -105.4594 294° West 361 415 21,900 1,597 Climbing Denver Center
Wed 11:24:23 AM 40.2158 -105.5931 295° West 370 426 23,500 1,210 Climbing Denver Center
Wed 11:25:25 AM 40.2522 -105.7050 293° West 368 423 24,400 1,016 Climbing Denver Center
Wed 11:26:27 AM 40.2564 -105.8486 272° West 404 465 25,600 1,161 Climbing Denver Center
Wed 11:27:29 AM 40.2378 -105.9906 260° West 395 455 26,800 1,113 Climbing Denver Center
Wed 11:28:31 AM 40.2367 -106.1769 270° West 406 467 27,900 581 Climbing Denver Center
Wed 11:29:33 AM 40.2356 -106.3228 269° West 416 479 28,000 48 Climbing Denver Center
Wed 11:30:35 AM 40.2331 -106.4800 269° West 447 514 28,000  Level Denver Center
Wed 11:31:37 AM 40.2417 -106.6497 274° West 453 521 28,000  Level Denver Center
Wed 11:32:39 AM 40.2558 -106.8128 277° West 455 524 28,000 48 Level Denver Center
Wed 11:33:41 AM 40.3239 -106.9808 298° West 453 521 28,100 532 Climbing Denver Center
Wed 11:34:43 AM 40.3822 -107.1208 299° West 457 526 29,100 1,016 Climbing Denver Center
Wed 11:35:45 AM 40.4492 -107.2836 298° West 455 524 30,200 1,065 Climbing Denver Center
Wed 11:36:47 AM 40.5050 -107.4214 298° West 449 517 31,300 871 Climbing Denver Center
Wed 11:37:49 AM 40.5683 -107.5783 298° West 439 505 32,000 339 Climbing Denver Center
Wed 11:38:51 AM 40.6233 -107.7158 298° West 442 509 32,000  Level Denver Center
Wed 11:39:53 AM 40.6686 -107.8306 298° West 443 510 32,000  Level Denver Center
Wed 11:40:56 AM 40.7464 -108.0247 298° West 430 495 32,000  Level Denver Center
Wed 11:41:58 AM 40.7981 -108.1564 297° West 424 488 32,000  Level Denver Center
Wed 11:43:00 AM 40.8497 -108.2872 298° West 421 484 32,000  Level Denver Center
Wed 11:43:32 AM 40.8839 -108.3772 297° West 424 488 32,000  Level Salt Lake Center
Wed 11:44:34 AM 40.9361 -108.5108 297° West 426 490 32,000  Level Salt Lake Center
Wed 11:45:36 AM 40.9969 -108.6678 297° West 430 495 32,000  Level Salt Lake Center
Wed 11:46:38 AM 41.0492 -108.8028 297° West 431 496 32,000  Level Salt Lake Center
Wed 11:47:40 AM 41.1111 -108.9631 297° West 435 501 32,000  Level Salt Lake Center
Wed 11:48:42 AM 41.1636 -109.1011 297° West 436 502 32,000  Level Salt Lake Center
Wed 11:49:44 AM 41.2164 -109.2408 297° West 438 504 32,000  Level Salt Lake Center
Wed 11:50:46 AM 41.2786 -109.4056 297° West 442 509 32,000  Level Salt Lake Center
Wed 11:51:48 AM 41.3314 -109.5469 296° West 443 510 32,000  Level Salt Lake Center
Wed 11:52:50 AM 41.3939 -109.7122 297° West 447 514 32,000  Level Salt Lake Center
Wed 11:53:52 AM 41.4467 -109.8542 296° West 447 514 32,000  Level Salt Lake Center
Wed 11:54:54 AM 41.5075 -110.0197 296° West 446 513 32,000  Level Salt Lake Center
Wed 11:55:56 AM 41.5597 -110.1606 296° West 444 511 32,000  Level Salt Lake Center
Wed 11:56:58 AM 41.6200 -110.3233 296° West 440 506 32,000  Level Salt Lake Center
Wed 11:58:00 AM 41.6719 -110.4625 297° West 439 505 32,000  Level Salt Lake Center
Wed 11:59:02 AM 41.7294 -110.6247 295° West 433 498 32,000  Level Salt Lake Center
Wed 12:00:04 PM 41.7800 -110.7622 296° West 431 496 32,000  Level Salt Lake Center
Wed 12:01:06 PM 41.8372 -110.9231 296° West 429 494 32,000  Level Salt Lake Center
Wed 12:02:08 PM 41.8922 -111.0769 296° West 434 499 32,000  Level Salt Lake Center
Wed 12:03:10 PM 41.9431 -111.2203 296° West 429 494 32,000  Level Salt Lake Center
Wed 12:04:12 PM 41.9950 -111.3658 296° West 433 498 32,000  Level Salt Lake Center
Wed 12:05:14 PM 42.0456 -111.5108 295° West 432 497 32,000  Level Salt Lake Center
Wed 12:06:16 PM 42.0964 -111.6550 295° West 429 494 32,000  Level Salt Lake Center
Wed 12:07:18 PM 42.1481 -111.8006 296° West 432 497 32,000  Level Salt Lake Center
Wed 12:08:20 PM 42.2081 -111.9758 295° West 432 497 32,000  Level Salt Lake Center
Wed 12:09:22 PM 42.2581 -112.1219 295° West 433 498 32,000  Level Salt Lake Center
Wed 12:10:24 PM 42.3083 -112.2681 295° West 432 497 32,000  Level Salt Lake Center
Wed 12:11:26 PM 42.3581 -112.4147 295° West 432 497 32,000  Level Salt Lake Center
Wed 12:12:28 PM 42.4086 -112.5614 295° West 434 499 32,000  Level Salt Lake Center
Wed 12:13:29 PM 42.4575 -112.7081 294° West 430 495 32,000  Level Salt Lake Center
Wed 12:14:31 PM 42.5167 -112.8839 295° West 428 493 32,000  Level Salt Lake Center
Wed 12:15:33 PM 42.5658 -113.0311 294° West 429 494 32,000  Level Salt Lake Center
Wed 12:16:35 PM 42.6139 -113.1778 294° West 427 491 32,000  Level Salt Lake Center
Wed 12:17:37 PM 42.6622 -113.3247 294° West 429 494 32,000  Level Salt Lake Center
Wed 12:18:39 PM 42.7158 -113.4853 294° West 429 494 32,000  Level Salt Lake Center
Wed 12:19:41 PM 42.7622 -113.6272 294° West 430 495 32,000  Level Salt Lake Center
Wed 12:20:43 PM 42.8164 -113.7919 294° West 427 491 32,000 -290 Level Salt Lake Center
Wed 12:21:45 PM 42.8639 -113.9514 292° West 440 506 31,400 -1,258 Descending Salt Lake Center
Wed 12:22:47 PM 42.9136 -114.1058 294° West 449 517 29,400 -2,032 Descending Salt Lake Center
Wed 12:23:49 PM 42.9719 -114.2792 295° West 457 526 27,200 -2,032 Descending Salt Lake Center
Wed 12:24:51 PM 43.0192 -114.4292 293° West 450 518 25,200 -1,839 Descending Salt Lake Center
Wed 12:25:53 PM 43.0642 -114.5744 293° West 436 502 23,400 -1,742 Descending Salt Lake Center
Wed 12:26:55 PM 43.1147 -114.7353 293° West 413 475 21,600 -1,659 Descending Salt Lake Center
Wed 12:27:56 PM 43.1592 -114.8794 293° West 402 463 20,000 -1,561 Descending Salt Lake Center
Wed 12:28:58 PM 43.2039 -115.0244 293° West 398 458 18,400 -1,500 Descending Salt Lake Center
Wed 12:30:00 PM 43.2481 -115.1667 293° West 390 449 16,900 -1,452 Descending Salt Lake Center
Wed 12:31:02 PM 43.2908 -115.3075 293° West 386 444 15,400 -1,403 Descending Salt Lake Center
Wed 12:32:04 PM 43.3325 -115.4447 293° West 378 435 14,000 -1,161 Descending Salt Lake Center
Wed 12:33:06 PM 43.3700 -115.5694 293° West 371 427 13,000 -726 Descending Salt Lake Center
Wed 12:34:08 PM 43.4289 -115.6908 304° West 372 428 12,500 -1,016 Descending Salt Lake Center
Wed 12:35:10 PM 43.4944 -115.7931 311° West 346 398 10,900 -1,500 Descending Salt Lake Center
Wed 12:36:12 PM 43.5353 -115.8956 299° West 296 341 9,400 -1,415 Descending Salt Lake Center
Wed 12:37:13 PM 43.5656 -115.9958 293° West 277 319 8,000 -683 Descending Salt Lake Center
Wed 12:38:15 PM 43.5944 -116.0897 293° West 258 297 8,000 -48 Level Salt Lake Center
Wed 12:39:17 PM 43.6208 -116.1797 292° West 245 282 7,900 -532 Descending Salt Lake Center
Wed 12:40:19 PM 43.6461 -116.2608 293° West 225 259 6,900 -1,161 Descending Salt Lake Center
Wed 12:41:21 PM 43.6444 -116.3200 268° West 182 209 5,500 -1,355 Descending Salt Lake Center

Login

Don't have an account? Register now (free) for customized features, flight alerts, and more!